sensor_id;sensor_type;location;lat;lon;timestamp;pressure;altitude;pressure_sealevel;temperature;humidity
23433;BME280;41331;45.412;10.992;2024-03-02T00:00:22;100031.44;;;11.46;100.00
23433;BME280;41331;45.412;10.992;2024-03-02T00:02:52;100042.00;;;11.48;100.00
23433;BME280;41331;45.412;10.992;2024-03-02T00:05:21;100044.34;;;11.49;100.00
23433;BME280;41331;45.412;10.992;2024-03-02T00:07:55;100041.41;;;11.54;100.00
23433;BME280;41331;45.412;10.992;2024-03-02T00:10:36;100037.44;;;11.52;100.00
23433;BME280;41331;45.412;10.992;2024-03-02T00:13:12;100039.03;;;11.53;100.00
23433;BME280;41331;45.412;10.992;2024-03-02T00:15:41;100040.16;;;11.52;100.00
23433;BME280;41331;45.412;10.992;2024-03-02T00:21:01;100049.03;;;11.49;100.00
23433;BME280;41331;45.412;10.992;2024-03-02T00:23:31;100055.13;;;11.58;100.00
23433;BME280;41331;45.412;10.992;2024-03-02T00:25:59;100052.41;;;11.58;100.00
23433;BME280;41331;45.412;10.992;2024-03-02T00:30:59;100055.03;;;11.54;100.00
23433;BME280;41331;45.412;10.992;2024-03-02T00:33:32;100047.09;;;11.49;100.00
23433;BME280;41331;45.412;10.992;2024-03-02T00:36:04;100042.78;;;11.60;100.00
23433;BME280;41331;45.412;10.992;2024-03-02T00:38:33;100047.91;;;11.50;100.00
23433;BME280;41331;45.412;10.992;2024-03-02T00:41:05;100043.78;;;11.56;100.00
23433;BME280;41331;45.412;10.992;2024-03-02T00:46:25;100044.25;;;11.58;100.00
23433;BME280;41331;45.412;10.992;2024-03-02T00:49:00;100042.78;;;11.60;100.00
23433;BME280;41331;45.412;10.992;2024-03-02T00:51:31;100049.81;;;11.61;100.00
23433;BME280;41331;45.412;10.992;2024-03-02T00:54:03;100051.06;;;11.52;100.00
23433;BME280;41331;45.412;10.992;2024-03-02T00:56:32;100046.28;;;11.61;100.00
23433;BME280;41331;45.412;10.992;2024-03-02T00:59:01;100053.19;;;11.58;100.00
23433;BME280;41331;45.412;10.992;2024-03-02T01:01:29;100056.47;;;11.64;100.00
23433;BME280;41331;45.412;10.992;2024-03-02T01:03:57;100043.00;;;11.55;100.00
23433;BME280;41331;45.412;10.992;2024-03-02T01:06:25;100048.69;;;11.50;100.00
23433;BME280;41331;45.412;10.992;2024-03-02T01:08:53;100042.22;;;11.55;100.00
23433;BME280;41331;45.412;10.992;2024-03-02T01:11:21;100047.66;;;11.55;100.00
23433;BME280;41331;45.412;10.992;2024-03-02T01:13:52;100052.28;;;11.54;100.00
23433;BME280;41331;45.412;10.992;2024-03-02T01:16:20;100038.22;;;11.52;100.00
23433;BME280;41331;45.412;10.992;2024-03-02T01:18:48;100036.19;;;11.49;100.00
23433;BME280;41331;45.412;10.992;2024-03-02T01:21:16;100034.47;;;11.57;100.00
23433;BME280;41331;45.412;10.992;2024-03-02T01:23:45;100031.63;;;11.53;100.00
23433;BME280;41331;45.412;10.992;2024-03-02T01:26:12;100037.09;;;11.53;100.00
23433;BME280;41331;45.412;10.992;2024-03-02T01:28:40;100033.13;;;11.51;100.00
23433;BME280;41331;45.412;10.992;2024-03-02T01:31:08;100031.88;;;11.48;100.00
23433;BME280;41331;45.412;10.992;2024-03-02T01:33:36;100030.72;;;11.49;100.00
23433;BME280;41331;45.412;10.992;2024-03-02T01:36:04;100022.31;;;11.54;100.00
23433;BME280;41331;45.412;10.992;2024-03-02T01:38:32;100024.72;;;11.56;100.00
23433;BME280;41331;45.412;10.992;2024-03-02T01:41:01;100021.22;;;11.55;100.00
23433;BME280;41331;45.412;10.992;2024-03-02T01:43:30;100016.66;;;11.47;100.00
23433;BME280;41331;45.412;10.992;2024-03-02T01:45:58;100027.94;;;11.46;100.00
23433;BME280;41331;45.412;10.992;2024-03-02T01:48:26;100019.63;;;11.42;100.00
23433;BME280;41331;45.412;10.992;2024-03-02T01:50:54;100023.47;;;11.53;100.00
23433;BME280;41331;45.412;10.992;2024-03-02T01:53:23;100023.81;;;11.52;100.00
23433;BME280;41331;45.412;10.992;2024-03-02T01:55:51;100018.50;;;11.43;100.00
23433;BME280;41331;45.412;10.992;2024-03-02T01:58:19;100023.38;;;11.50;100.00
23433;BME280;41331;45.412;10.992;2024-03-02T02:00:47;100014.50;;;11.53;100.00
23433;BME280;41331;45.412;10.992;2024-03-02T02:03:15;100016.53;;;11.56;100.00
23433;BME280;41331;45.412;10.992;2024-03-02T02:05:43;100012.13;;;11.51;100.00
23433;BME280;41331;45.412;10.992;2024-03-02T02:08:11;100027.22;;;11.49;100.00
23433;BME280;41331;45.412;10.992;2024-03-02T02:10:39;100023.81;;;11.52;100.00
23433;BME280;41331;45.412;10.992;2024-03-02T02:13:07;100030.59;;;11.58;100.00
23433;BME280;41331;45.412;10.992;2024-03-02T02:15:36;100037.19;;;11.57;100.00
23433;BME280;41331;45.412;10.992;2024-03-02T02:18:04;100030.84;;;11.53;100.00
23433;BME280;41331;45.412;10.992;2024-03-02T02:20:32;100021.88;;;11.52;100.00
23433;BME280;41331;45.412;10.992;2024-03-02T02:23:05;100025.53;;;11.44;100.00
23433;BME280;41331;45.412;10.992;2024-03-02T02:25:33;100029.16;;;11.48;100.00
23433;BME280;41331;45.412;10.992;2024-03-02T02:28:01;100030.28;;;11.47;100.00
23433;BME280;41331;45.412;10.992;2024-03-02T02:30:31;100024.72;;;11.44;100.00
23433;BME280;41331;45.412;10.992;2024-03-02T02:33:00;100018.50;;;11.43;100.00
23433;BME280;41331;45.412;10.992;2024-03-02T02:35:28;100023.69;;;11.48;100.00
23433;BME280;41331;45.412;10.992;2024-03-02T02:37:57;100018.25;;;11.48;100.00
23433;BME280;41331;45.412;10.992;2024-03-02T02:40:26;100020.00;;;11.40;100.00
23433;BME280;41331;45.412;10.992;2024-03-02T02:42:57;100019.19;;;11.40;100.00
23433;BME280;41331;45.412;10.992;2024-03-02T02:45:26;99997.41;;;11.28;100.00
23433;BME280;41331;45.412;10.992;2024-03-02T02:47:54;100012.94;;;11.39;100.00
23433;BME280;41331;45.412;10.992;2024-03-02T02:50:22;100013.28;;;11.38;100.00
23433;BME280;41331;45.412;10.992;2024-03-02T02:52:50;100010.19;;;11.39;100.00
23433;BME280;41331;45.412;10.992;2024-03-02T02:55:18;100015.66;;;11.39;100.00
23433;BME280;41331;45.412;10.992;2024-03-02T02:57:46;100018.16;;;11.45;100.00
23433;BME280;41331;45.412;10.992;2024-03-02T03:00:16;100017.09;;;11.49;100.00
23433;BME280;41331;45.412;10.992;2024-03-02T03:02:48;100013.03;;;11.43;100.00
23433;BME280;41331;45.412;10.992;2024-03-02T03:05:18;100018.16;;;11.45;100.00
23433;BME280;41331;45.412;10.992;2024-03-02T03:07:46;100014.19;;;11.42;100.00
23433;BME280;41331;45.412;10.992;2024-03-02T03:10:17;100016.72;;;11.35;100.00
23433;BME280;41331;45.412;10.992;2024-03-02T03:12:46;100015.56;;;11.36;100.00
23433;BME280;41331;45.412;10.992;2024-03-02T03:15:14;100020.78;;;11.29;100.00
23433;BME280;41331;45.412;10.992;2024-03-02T03:17:44;100017.16;;;11.37;100.00
23433;BME280;41331;45.412;10.992;2024-03-02T03:20:13;100021.44;;;11.38;100.00
23433;BME280;41331;45.412;10.992;2024-03-02T03:22:44;100024.72;;;11.44;100.00
23433;BME280;41331;45.412;10.992;2024-03-02T03:25:12;100028.38;;;11.48;100.00
23433;BME280;41331;45.412;10.992;2024-03-02T03:27:41;100029.38;;;11.43;100.00
23433;BME280;41331;45.412;10.992;2024-03-02T03:30:10;100031.44;;;11.34;100.00
23433;BME280;41331;45.412;10.992;2024-03-02T03:32:38;100026.56;;;11.39;100.00
23433;BME280;41331;45.412;10.992;2024-03-02T03:35:06;100038.34;;;11.44;100.00
23433;BME280;41331;45.412;10.992;2024-03-02T03:37:35;100033.94;;;11.39;100.00
23433;BME280;41331;45.412;10.992;2024-03-02T03:40:03;100035.53;;;11.40;100.00
23433;BME280;41331;45.412;10.992;2024-03-02T03:42:38;100031.13;;;11.35;100.00
23433;BME280;41331;45.412;10.992;2024-03-02T03:45:07;100029.06;;;11.32;100.00
23433;BME280;41331;45.412;10.992;2024-03-02T03:47:35;100036.66;;;11.39;100.00
23433;BME280;41331;45.412;10.992;2024-03-02T03:50:04;100029.97;;;11.36;100.00
23433;BME280;41331;45.412;10.992;2024-03-02T03:52:34;100029.63;;;11.38;100.00
23433;BME280;41331;45.412;10.992;2024-03-02T03:55:02;100029.94;;;11.49;100.00
23433;BME280;41331;45.412;10.992;2024-03-02T03:57:30;100034.28;;;11.50;100.00
23433;BME280;41331;45.412;10.992;2024-03-02T03:59:58;100037.78;;;11.50;100.00
23433;BME280;41331;45.412;10.992;2024-03-02T04:02:26;100039.84;;;11.41;100.00
23433;BME280;41331;45.412;10.992;2024-03-02T04:04:53;100042.34;;;11.46;100.00
23433;BME280;41331;45.412;10.992;2024-03-02T04:07:21;100035.06;;;11.38;100.00
23433;BME280;41331;45.412;10.992;2024-03-02T04:09:49;100042.34;;;11.46;100.00
23433;BME280;41331;45.412;10.992;2024-03-02T04:12:17;100046.09;;;11.41;100.00
23433;BME280;41331;45.412;10.992;2024-03-02T04:14:44;100043.47;;;11.45;100.00
23433;BME280;41331;45.412;10.992;2024-03-02T04:17:12;100048.94;;;11.45;100.00
23433;BME280;41331;45.412;10.992;2024-03-02T04:19:40;100052.34;;;11.42;100.00
23433;BME280;41331;45.412;10.992;2024-03-02T04:22:08;100049.72;;;11.46;100.00
23433;BME280;41331;45.412;10.992;2024-03-02T04:24:47;100049.50;;;11.51;100.00
23433;BME280;41331;45.412;10.992;2024-03-02T04:27:15;100050.41;;;11.43;100.00
23433;BME280;41331;45.412;10.992;2024-03-02T04:29:43;100053.13;;;11.43;100.00
23433;BME280;41331;45.412;10.992;2024-03-02T04:32:11;100052.22;;;11.38;100.00
23433;BME280;41331;45.412;10.992;2024-03-02T04:34:38;100064.13;;;11.34;100.00
23433;BME280;41331;45.412;10.992;2024-03-02T04:37:06;100059.47;;;11.34;100.00
23433;BME280;41331;45.412;10.992;2024-03-02T04:39:35;100051.00;;;11.36;100.00
23433;BME280;41331;45.412;10.992;2024-03-02T04:42:03;100066.06;;;11.33;100.00
23433;BME280;41331;45.412;10.992;2024-03-02T04:44:31;100072.09;;;11.27;100.00
23433;BME280;41331;45.412;10.992;2024-03-02T04:46:59;100063.69;;;11.32;100.00
23433;BME280;41331;45.412;10.992;2024-03-02T04:49:27;100070.53;;;11.26;100.00
23433;BME280;41331;45.412;10.992;2024-03-02T04:51:55;100067.78;;;11.26;100.00
23433;BME280;41331;45.412;10.992;2024-03-02T04:54:23;100065.97;;;11.30;100.00
23433;BME280;41331;45.412;10.992;2024-03-02T04:56:51;100070.03;;;11.24;100.00
23433;BME280;41331;45.412;10.992;2024-03-02T04:59:19;100068.25;;;11.28;100.00
23433;BME280;41331;45.412;10.992;2024-03-02T05:01:47;100071.31;;;11.26;100.00
23433;BME280;41331;45.412;10.992;2024-03-02T05:04:15;100084.22;;;11.29;100.00
23433;BME280;41331;45.412;10.992;2024-03-02T05:06:43;100081.84;;;11.28;100.00
23433;BME280;41331;45.412;10.992;2024-03-02T05:09:11;100076.44;;;11.15;100.00
23433;BME280;41331;45.412;10.992;2024-03-02T05:11:39;100087.31;;;11.15;100.00
23433;BME280;41331;45.412;10.992;2024-03-02T05:14:06;100084.47;;;11.24;100.00
23433;BME280;41331;45.412;10.992;2024-03-02T05:16:36;100090.50;;;11.18;100.00
23433;BME280;41331;45.412;10.992;2024-03-02T05:19:06;100090.50;;;11.18;100.00
23433;BME280;41331;45.412;10.992;2024-03-02T05:21:34;100098.44;;;11.23;100.00
23433;BME280;41331;45.412;10.992;2024-03-02T05:24:02;100098.31;;;11.19;100.00
23433;BME280;41331;45.412;10.992;2024-03-02T05:26:30;100092.31;;;11.26;100.00
23433;BME280;41331;45.412;10.992;2024-03-02T05:28:58;100094.56;;;11.24;100.00
23433;BME280;41331;45.412;10.992;2024-03-02T05:31:26;100096.41;;;11.20;100.00
23433;BME280;41331;45.412;10.992;2024-03-02T05:33:54;100097.66;;;11.10;100.00
23433;BME280;41331;45.412;10.992;2024-03-02T05:36:24;100094.56;;;11.11;100.00
23433;BME280;41331;45.412;10.992;2024-03-02T05:38:52;100097.44;;;11.15;100.00
23433;BME280;41331;45.412;10.992;2024-03-02T05:41:20;100095.16;;;11.17;100.00
23433;BME280;41331;45.412;10.992;2024-03-02T05:43:48;100088.56;;;11.18;100.00
23433;BME280;41331;45.412;10.992;2024-03-02T05:46:17;100094.22;;;11.13;100.00
23433;BME280;41331;45.412;10.992;2024-03-02T05:48:45;100091.41;;;11.09;100.00
23433;BME280;41331;45.412;10.992;2024-03-02T05:51:13;100094.94;;;11.10;100.00
23433;BME280;41331;45.412;10.992;2024-03-02T05:53:41;100094.44;;;11.08;100.00
23433;BME280;41331;45.412;10.992;2024-03-02T05:56:09;100110.13;;;11.11;100.00
23433;BME280;41331;45.412;10.992;2024-03-02T05:58:37;100109.22;;;11.19;100.00
23433;BME280;41331;45.412;10.992;2024-03-02T06:01:26;100113.75;;;11.15;100.00
23433;BME280;41331;45.412;10.992;2024-03-02T06:03:56;100116.25;;;11.20;100.00
23433;BME280;41331;45.412;10.992;2024-03-02T06:06:27;100119.53;;;11.13;100.00
23433;BME280;41331;45.412;10.992;2024-03-02T06:08:55;100117.16;;;11.12;100.00
23433;BME280;41331;45.412;10.992;2024-03-02T06:11:24;100122.38;;;11.17;100.00
23433;BME280;41331;45.412;10.992;2024-03-02T06:13:52;100120.66;;;11.12;100.00
23433;BME280;41331;45.412;10.992;2024-03-02T06:16:23;100124.97;;;11.13;100.00
23433;BME280;41331;45.412;10.992;2024-03-02T06:18:50;100129.31;;;11.14;100.00
23433;BME280;41331;45.412;10.992;2024-03-02T06:21:19;100132.84;;;11.15;100.00
23433;BME280;41331;45.412;10.992;2024-03-02T06:23:47;100129.63;;;11.13;100.00
23433;BME280;41331;45.412;10.992;2024-03-02T06:26:15;100130.44;;;11.13;100.00
23433;BME280;41331;45.412;10.992;2024-03-02T06:28:43;100138.72;;;11.17;100.00
23433;BME280;41331;45.412;10.992;2024-03-02T06:31:11;100134.31;;;11.25;100.00
23433;BME280;41331;45.412;10.992;2024-03-02T06:33:39;100136.69;;;11.26;100.00
23433;BME280;41331;45.412;10.992;2024-03-02T06:36:09;100137.13;;;11.16;100.00
23433;BME280;41331;45.412;10.992;2024-03-02T06:38:39;100141.44;;;11.17;100.00
23433;BME280;41331;45.412;10.992;2024-03-02T06:41:11;100144.97;;;11.18;100.00
23433;BME280;41331;45.412;10.992;2024-03-02T06:43:38;100146.31;;;11.24;100.00
23433;BME280;41331;45.412;10.992;2024-03-02T06:46:06;100140.44;;;11.22;100.00
23433;BME280;41331;45.412;10.992;2024-03-02T06:48:37;100148.81;;;11.29;100.00
23433;BME280;41331;45.412;10.992;2024-03-02T06:51:05;100155.75;;;11.26;100.00
23433;BME280;41331;45.412;10.992;2024-03-02T06:53:32;100164.59;;;11.23;100.00
23433;BME280;41331;45.412;10.992;2024-03-02T06:56:01;100170.19;;;11.27;100.00
23433;BME280;41331;45.412;10.992;2024-03-02T06:58:33;100169.50;;;11.30;100.00
23433;BME280;41331;45.412;10.992;2024-03-02T07:01:01;100170.19;;;11.14;100.00
23433;BME280;41331;45.412;10.992;2024-03-02T07:03:29;100171.06;;;11.19;100.00
23433;BME280;41331;45.412;10.992;2024-03-02T07:05:58;100170.50;;;11.13;100.00
23433;BME280;41331;45.412;10.992;2024-03-02T07:08:26;100171.97;;;11.10;100.00
23433;BME280;41331;45.412;10.992;2024-03-02T07:10:54;100182.97;;;11.14;100.00
23433;BME280;41331;45.412;10.992;2024-03-02T07:13:22;100180.84;;;11.20;100.00
23433;BME280;41331;45.412;10.992;2024-03-02T07:15:50;100184.25;;;11.17;100.00
23433;BME280;41331;45.412;10.992;2024-03-02T07:18:32;100184.69;;;11.19;100.00
23433;BME280;41331;45.412;10.992;2024-03-02T07:21:00;100193.34;;;11.21;100.00
23433;BME280;41331;45.412;10.992;2024-03-02T07:23:28;100196.28;;;11.28;100.00
23433;BME280;41331;45.412;10.992;2024-03-02T07:25:57;100191.63;;;11.28;100.00
23433;BME280;41331;45.412;10.992;2024-03-02T07:28:31;100196.97;;;11.25;100.00
23433;BME280;41331;45.412;10.992;2024-03-02T07:31:00;100198.09;;;11.24;100.00
23433;BME280;41331;45.412;10.992;2024-03-02T07:33:28;100204.94;;;11.30;100.00
23433;BME280;41331;45.412;10.992;2024-03-02T07:35:57;100206.16;;;11.32;100.00
23433;BME280;41331;45.412;10.992;2024-03-02T07:38:31;100205.59;;;11.27;100.00
23433;BME280;41331;45.412;10.992;2024-03-02T07:41:01;100216.72;;;11.34;100.00
23433;BME280;41331;45.412;10.992;2024-03-02T07:43:30;100219.34;;;11.30;100.00
23433;BME280;41331;45.412;10.992;2024-03-02T07:46:00;100221.38;;;11.33;100.00
23433;BME280;41331;45.412;10.992;2024-03-02T07:48:28;100222.84;;;11.31;100.00
23433;BME280;41331;45.412;10.992;2024-03-02T07:50:56;100228.75;;;11.33;100.00
23433;BME280;41331;45.412;10.992;2024-03-02T07:53:24;100229.31;;;11.26;100.00
23433;BME280;41331;45.412;10.992;2024-03-02T07:55:52;100233.97;;;11.26;100.00
23433;BME280;41331;45.412;10.992;2024-03-02T07:58:20;100240.00;;;11.31;100.00
23433;BME280;41331;45.412;10.992;2024-03-02T08:00:48;100237.22;;;11.19;100.00
23433;BME280;41331;45.412;10.992;2024-03-02T08:03:20;100238.50;;;11.22;100.00
23433;BME280;41331;45.412;10.992;2024-03-02T08:05:48;100245.75;;;11.18;100.00
23433;BME280;41331;45.412;10.992;2024-03-02T08:08:16;100248.25;;;11.23;100.00
23433;BME280;41331;45.412;10.992;2024-03-02T08:10:44;100238.50;;;11.22;100.00
23433;BME280;41331;45.412;10.992;2024-03-02T08:13:12;100248.47;;;11.18;100.00
23433;BME280;41331;45.412;10.992;2024-03-02T08:15:39;100250.28;;;11.13;100.00
23433;BME280;41331;45.412;10.992;2024-03-02T08:18:07;100248.13;;;11.19;100.00
23433;BME280;41331;45.412;10.992;2024-03-02T08:20:35;100260.75;;;11.24;100.00
23433;BME280;41331;45.412;10.992;2024-03-02T08:23:03;100243.06;;;11.30;100.00
23433;BME280;41331;45.412;10.992;2024-03-02T08:25:31;100252.25;;;11.37;100.00
23433;BME280;41331;45.412;10.992;2024-03-02T08:27:59;100257.50;;;11.43;100.00
23433;BME280;41331;45.412;10.992;2024-03-02T08:30:27;100257.97;;;11.45;100.00
23433;BME280;41331;45.412;10.992;2024-03-02T08:32:55;100257.06;;;11.53;100.00
23433;BME280;41331;45.412;10.992;2024-03-02T08:35:22;100259.66;;;11.49;100.00
23433;BME280;41331;45.412;10.992;2024-03-02T08:37:50;100262.94;;;11.43;100.00
23433;BME280;41331;45.412;10.992;2024-03-02T08:40:18;100259.19;;;11.35;100.00
23433;BME280;41331;45.412;10.992;2024-03-02T08:42:46;100264.22;;;11.45;100.00
23433;BME280;41331;45.412;10.992;2024-03-02T08:45:15;100265.00;;;11.46;100.00
23433;BME280;41331;45.412;10.992;2024-03-02T08:47:43;100268.19;;;11.48;100.00
23433;BME280;41331;45.412;10.992;2024-03-02T08:50:11;100270.59;;;11.61;100.00
23433;BME280;41331;45.412;10.992;2024-03-02T08:52:39;100265.94;;;11.62;100.00
23433;BME280;41331;45.412;10.992;2024-03-02T08:55:07;100266.28;;;11.60;100.00
23433;BME280;41331;45.412;10.992;2024-03-02T08:57:35;100262.53;;;11.65;100.00
23433;BME280;41331;45.412;10.992;2024-03-02T09:00:04;100266.38;;;11.64;100.00
23433;BME280;41331;45.412;10.992;2024-03-02T09:02:32;100267.38;;;11.59;100.00
23433;BME280;41331;45.412;10.992;2024-03-02T09:05:01;100271.84;;;11.64;100.00
23433;BME280;41331;45.412;10.992;2024-03-02T09:07:28;100263.78;;;11.67;100.00
23433;BME280;41331;45.412;10.992;2024-03-02T09:10:01;100269.66;;;11.70;100.00
23433;BME280;41331;45.412;10.992;2024-03-02T09:12:32;100266.63;;;11.71;100.00
23433;BME280;41331;45.412;10.992;2024-03-02T09:15:01;100277.44;;;11.80;100.00
23433;BME280;41331;45.412;10.992;2024-03-02T09:17:29;100274.69;;;11.67;100.00
23433;BME280;41331;45.412;10.992;2024-03-02T09:19:57;100279.69;;;11.65;100.00
23433;BME280;41331;45.412;10.992;2024-03-02T09:22:25;100273.53;;;11.68;100.00
23433;BME280;41331;45.412;10.992;2024-03-02T09:24:53;100291.38;;;11.66;100.00
23433;BME280;41331;45.412;10.992;2024-03-02T09:27:21;100280.34;;;11.62;100.00
23433;BME280;41331;45.412;10.992;2024-03-02T09:29:49;100289.00;;;11.77;100.00
23433;BME280;41331;45.412;10.992;2024-03-02T09:32:17;100290.41;;;11.83;100.00
23433;BME280;41331;45.412;10.992;2024-03-02T09:34:46;100293.84;;;11.59;100.00
23433;BME280;41331;45.412;10.992;2024-03-02T09:37:15;100289.88;;;11.56;100.00
23433;BME280;41331;45.412;10.992;2024-03-02T09:39:43;100293.19;;;11.50;100.00
23433;BME280;41331;45.412;10.992;2024-03-02T09:42:12;100288.63;;;11.54;100.00
23433;BME280;41331;45.412;10.992;2024-03-02T09:44:42;100285.47;;;11.64;100.00
23433;BME280;41331;45.412;10.992;2024-03-02T09:47:13;100296.50;;;11.67;100.00
23433;BME280;41331;45.412;10.992;2024-03-02T09:49:40;100292.53;;;11.77;100.00
23433;BME280;41331;45.412;10.992;2024-03-02T09:52:10;100296.28;;;11.73;100.00
23433;BME280;41331;45.412;10.992;2024-03-02T09:54:38;100300.25;;;11.75;100.00
23433;BME280;41331;45.412;10.992;2024-03-02T09:57:06;100307.28;;;11.64;100.00
23433;BME280;41331;45.412;10.992;2024-03-02T09:59:34;100297.38;;;11.59;100.00
23433;BME280;41331;45.412;10.992;2024-03-02T10:02:03;100302.28;;;11.78;100.00
23433;BME280;41331;45.412;10.992;2024-03-02T10:04:31;100302.75;;;11.68;100.00
23433;BME280;41331;45.412;10.992;2024-03-02T10:09:42;100298.41;;;11.67;100.00
23433;BME280;41331;45.412;10.992;2024-03-02T10:12:11;100304.94;;;11.75;100.00
23433;BME280;41331;45.412;10.992;2024-03-02T10:14:40;100302.44;;;11.82;100.00
23433;BME280;41331;45.412;10.992;2024-03-02T10:17:10;100302.63;;;11.77;100.00
23433;BME280;41331;45.412;10.992;2024-03-02T10:19:38;100302.38;;;11.70;100.00
23433;BME280;41331;45.412;10.992;2024-03-02T10:22:08;100303.00;;;11.75;100.00
23433;BME280;41331;45.412;10.992;2024-03-02T10:24:41;100302.28;;;11.78;100.00
23433;BME280;41331;45.412;10.992;2024-03-02T10:27:10;100301.09;;;12.00;100.00
23433;BME280;41331;45.412;10.992;2024-03-02T10:29:39;100304.50;;;12.09;100.00
23433;BME280;41331;45.412;10.992;2024-03-02T10:32:09;100310.41;;;12.24;100.00
23433;BME280;41331;45.412;10.992;2024-03-02T10:34:46;100310.41;;;12.11;100.00
23433;BME280;41331;45.412;10.992;2024-03-02T10:37:14;100310.31;;;12.20;100.00
23433;BME280;41331;45.412;10.992;2024-03-02T10:39:43;100305.31;;;12.10;100.00
23433;BME280;41331;45.412;10.992;2024-03-02T10:42:11;100306.53;;;12.12;100.00
23433;BME280;41331;45.412;10.992;2024-03-02T10:44:41;100305.84;;;12.03;100.00
23433;BME280;41331;45.412;10.992;2024-03-02T10:47:12;100309.03;;;12.17;100.00
23433;BME280;41331;45.412;10.992;2024-03-02T10:49:42;100304.50;;;12.09;100.00
23433;BME280;41331;45.412;10.992;2024-03-02T10:52:11;100310.78;;;12.10;100.00
23433;BME280;41331;45.412;10.992;2024-03-02T10:54:39;100311.09;;;12.21;100.00
23433;BME280;41331;45.412;10.992;2024-03-02T10:57:10;100310.78;;;12.10;100.00
23433;BME280;41331;45.412;10.992;2024-03-02T10:59:51;100312.09;;;12.04;100.00
23433;BME280;41331;45.412;10.992;2024-03-02T11:02:21;100306.22;;;12.02;100.00
23433;BME280;41331;45.412;10.992;2024-03-02T11:04:50;100315.06;;;11.99;100.00
23433;BME280;41331;45.412;10.992;2024-03-02T11:07:22;100304.50;;;12.09;100.00
23433;BME280;41331;45.412;10.992;2024-03-02T11:09:58;100311.78;;;12.05;100.00
23433;BME280;41331;45.412;10.992;2024-03-02T11:13:08;100308.16;;;12.01;100.00
23433;BME280;41331;45.412;10.992;2024-03-02T11:15:28;100307.34;;;12.13;100.00
23433;BME280;41331;45.412;10.992;2024-03-02T11:17:58;100301.31;;;12.07;100.00
23433;BME280;41331;45.412;10.992;2024-03-02T11:20:26;100306.53;;;12.12;100.00
23433;BME280;41331;45.412;10.992;2024-03-02T11:22:56;100301.06;;;12.25;100.00
23433;BME280;41331;45.412;10.992;2024-03-02T11:25:27;100302.00;;;12.16;100.00
23433;BME280;41331;45.412;10.992;2024-03-02T11:33:02;100290.50;;;11.99;100.00
23433;BME280;41331;45.412;10.992;2024-03-02T11:35:42;100291.69;;;12.10;100.00
23433;BME280;41331;45.412;10.992;2024-03-02T11:38:10;100289.06;;;12.01;100.00
23433;BME280;41331;45.412;10.992;2024-03-02T11:40:39;100283.69;;;12.17;100.00
23433;BME280;41331;45.412;10.992;2024-03-02T11:43:07;100286.66;;;12.12;100.00
23433;BME280;41331;45.412;10.992;2024-03-02T11:45:37;100286.44;;;12.17;100.00
23433;BME280;41331;45.412;10.992;2024-03-02T11:48:08;100284.75;;;12.00;100.00
23433;BME280;41331;45.412;10.992;2024-03-02T11:50:46;100278.81;;;12.10;100.00
23433;BME280;41331;45.412;10.992;2024-03-02T11:53:14;100273.91;;;12.04;100.00
23433;BME280;41331;45.412;10.992;2024-03-02T11:55:42;100272.13;;;11.96;100.00
23433;BME280;41331;45.412;10.992;2024-03-02T11:58:16;100273.13;;;12.03;100.00
23433;BME280;41331;45.412;10.992;2024-03-02T12:00:54;100266.44;;;11.88;100.00
23433;BME280;41331;45.412;10.992;2024-03-02T12:03:24;100270.66;;;11.86;100.00
23433;BME280;41331;45.412;10.992;2024-03-02T12:05:54;100262.47;;;11.86;100.00
23433;BME280;41331;45.412;10.992;2024-03-02T12:08:22;100258.13;;;11.97;100.00
23433;BME280;41331;45.412;10.992;2024-03-02T12:11:01;100257.09;;;11.89;100.00
23433;BME280;41331;45.412;10.992;2024-03-02T12:13:31;100255.50;;;11.88;100.00
23433;BME280;41331;45.412;10.992;2024-03-02T12:15:59;100251.78;;;11.93;100.00
23433;BME280;41331;45.412;10.992;2024-03-02T12:18:28;100245.63;;;12.08;100.00
23433;BME280;41331;45.412;10.992;2024-03-02T12:20:55;100242.78;;;12.17;100.00
23433;BME280;41331;45.412;10.992;2024-03-02T12:23:26;100241.88;;;12.25;100.00
23433;BME280;41331;45.412;10.992;2024-03-02T12:25:54;100242.66;;;12.26;100.00
23433;BME280;41331;45.412;10.992;2024-03-02T12:28:23;100242.59;;;12.50;100.00
23433;BME280;41331;45.412;10.992;2024-03-02T12:30:51;100244.53;;;12.78;100.00
23433;BME280;41331;45.412;10.992;2024-03-02T12:33:19;100243.88;;;13.25;100.00
23433;BME280;41331;45.412;10.992;2024-03-02T12:35:49;100245.66;;;13.05;100.00
23433;BME280;41331;45.412;10.992;2024-03-02T12:38:17;100246.53;;;12.93;100.00
23433;BME280;41331;45.412;10.992;2024-03-02T12:40:47;100247.94;;;12.47;100.00
23433;BME280;41331;45.412;10.992;2024-03-02T12:43:34;100256.06;;;12.31;100.00
23433;BME280;41331;45.412;10.992;2024-03-02T12:46:03;100249.34;;;12.28;100.00
23433;BME280;41331;45.412;10.992;2024-03-02T12:48:31;100263.00;;;12.04;100.00
23433;BME280;41331;45.412;10.992;2024-03-02T12:50:59;100253.13;;;11.99;100.00
23433;BME280;41331;45.412;10.992;2024-03-02T12:53:27;100244.94;;;12.11;100.00
23433;BME280;41331;45.412;10.992;2024-03-02T12:55:54;100257.94;;;11.90;100.00